Duhring, West Virginia
Current Conditions -  °F | °C
As of 12:52 PM on Monday 24 Nov 2014 (Local Time) from KBLF Reporting Station
Scattered Clouds Scattered Clouds  
Wind Chill: 67°   Ceiling: Unl
Heat Index: 67°   Visibility: 10mi
Dew Point: 40°   Wind: 29mph
Humidity: 37%   Direction: 270°W
Pressure: 29.69"   Gusts: 39mph
Location:  37.3892°N, 81.2383°W
Report Text: KBLF 241752Z AUTO 27025G34KT 10SM SCT065 19/04 A2969 RMK AO2 PK WND 24039/1733 SLP024 T01940044 10200 20117 56004
Loading
Personal Weather Stations






























Interactive Weather Map New forecast layout! Learn more

10-Day Weather Forecast

Advertisements
Track Severe Weather on mobile